Time;durP1;ratioP1;P1;durP2;ratioP2;P2;SDS_P1;SDS_P2;PMS_P1;PMS_P2;Temp;Humidity;BMP_temperature;BMP_pressure;BME280_temperature;BME280_humidity;BME280_pressure;Samples;Min_cycle;Max_cycle;Signal;HPM_P1;HPM_P2
2021/05/19 00:02:03;;;;;;;7.07;2.10;;;359.00;2329.60;;;;;;5091531;28;20020;-62
2021/05/19 00:04:29;;;;;;;4.43;2.47;;;358.90;2329.60;;;;;;5091525;28;20020;-61
2021/05/19 00:06:55;;;;;;;5.97;2.55;;;359.00;2329.60;;;;;;5091442;28;20028;-62
2021/05/19 00:09:20;;;;;;;5.93;2.63;;;358.80;2329.60;;;;;;5091141;28;20054;-62
2021/05/19 00:11:47;;;;;;;4.15;2.42;;;358.90;2329.60;;;;;;5091593;28;20111;-62
2021/05/19 00:14:16;;;;;;;5.38;3.20;;;358.80;2329.60;;;;;;5090974;28;20024;-63
2021/05/19 00:16:46;;;;;;;8.73;4.00;;;358.80;2329.60;;;;;;5091072;28;20039;-62
2021/05/19 00:19:12;;;;;;;6.50;5.90;;;358.70;2329.60;;;;;;5090791;28;20541;-62
2021/05/19 00:21:38;;;;;;;12.82;11.82;;;358.70;2329.60;;;;;;5091251;28;20150;-62
2021/05/19 00:24:05;;;;;;;5.53;4.60;;;358.60;2329.60;;;;;;5091273;28;20506;-62
2021/05/19 00:26:31;;;;;;;8.88;3.03;;;358.50;2329.60;;;;;;5091166;28;20028;-62
2021/05/19 00:28:58;;;;;;;7.22;3.22;;;358.60;2329.60;;;;;;5090885;28;20024;-62
2021/05/19 00:31:32;;;;;;;6.25;4.30;;;358.60;2329.60;;;;;;5090884;28;20039;-61
2021/05/19 00:33:58;;;;;;;7.35;5.00;;;358.70;2329.60;;;;;;5090934;28;20107;-62
2021/05/19 00:36:24;;;;;;;5.97;3.63;;;358.70;2329.60;;;;;;5090564;28;20035;-62
2021/05/19 00:38:49;;;;;;;8.00;3.50;;;358.70;2329.60;;;;;;5090809;28;20028;-61
2021/05/19 00:41:15;;;;;;;4.80;3.22;;;358.80;2329.60;;;;;;5090691;28;20034;-61
2021/05/19 00:43:43;;;;;;;5.65;3.08;;;358.80;2329.60;;;;;;5090590;28;20460;-62
2021/05/19 00:46:08;;;;;;;8.65;3.13;;;358.80;2329.60;;;;;;5090589;28;20051;-62
2021/05/19 00:48:35;;;;;;;5.43;2.83;;;358.90;2329.60;;;;;;5090504;28;20028;-62
2021/05/19 00:51:03;;;;;;;3.40;2.40;;;358.80;2329.60;;;;;;5090772;28;20494;-62
2021/05/19 00:53:28;;;;;;;18.35;15.43;;;358.80;2329.60;;;;;;5090713;28;20035;-62
2021/05/19 00:55:54;;;;;;;5.07;2.42;;;358.80;2329.60;;;;;;5090527;28;20023;-62
2021/05/19 00:58:20;;;;;;;6.25;5.05;;;358.60;2329.60;;;;;;5090212;28;20489;-62
2021/05/19 01:00:46;;;;;;;6.75;4.15;;;358.60;2329.60;;;;;;5090740;28;20086;-62
2021/05/19 01:03:12;;;;;;;4.72;3.95;;;358.60;2329.60;;;;;;5090355;28;20027;-62
2021/05/19 01:05:42;;;;;;;7.65;4.43;;;358.70;2329.60;;;;;;5090566;28;20028;-62
2021/05/19 01:10:53;;;;;;;5.10;2.15;;;358.70;2329.60;;;;;;5089565;28;20492;-63
2021/05/19 01:13:19;;;;;;;6.45;2.78;;;358.60;2329.60;;;;;;5090535;28;20027;-62
2021/05/19 01:15:46;;;;;;;6.53;3.40;;;333.70;2329.60;;;;;;5090312;28;20389;-62
2021/05/19 01:18:12;;;;;;;6.30;3.15;;;358.40;2329.60;;;;;;5090147;28;20032;-62
2021/05/19 01:20:39;;;;;;;9.90;3.05;;;358.40;2329.60;;;;;;5090251;28;20036;-61
2021/05/19 01:23:06;;;;;;;4.95;3.08;;;333.70;2329.60;;;;;;5090352;28;20103;-62
2021/05/19 01:25:34;;;;;;;8.30;3.70;;;333.60;2329.60;;;;;;5090233;28;20115;-62
2021/05/19 01:28:01;;;;;;;6.22;2.60;;;333.70;2329.60;;;;;;5089890;28;20051;-63
2021/05/19 01:30:29;;;;;;;12.32;2.92;;;333.70;2329.60;;;;;;5090110;28;20016;-62
2021/05/19 01:32:55;;;;;;;4.93;2.45;;;333.70;2329.60;;;;;;5090154;28;20024;-62
2021/05/19 01:35:21;;;;;;;4.35;2.53;;;333.70;2329.60;;;;;;5090067;28;20024;-63
2021/05/19 01:37:48;;;;;;;4.40;2.20;;;333.50;2329.60;;;;;;5090154;28;20035;-62
2021/05/19 01:40:17;;;;;;;5.03;1.70;;;333.60;2329.60;;;;;;5090042;28;20145;-62
2021/05/19 01:42:46;;;;;;;4.85;2.10;;;333.70;2329.60;;;;;;5089715;28;20020;-60
2021/05/19 01:45:13;;;;;;;2.92;1.40;;;333.70;2329.60;;;;;;5089833;28;20073;-61
2021/05/19 01:47:47;;;;;;;3.60;1.98;;;358.40;2329.60;;;;;;5089740;28;20058;-62
2021/05/19 01:50:19;;;;;;;2.67;1.83;;;358.40;2329.60;;;;;;5089849;28;20470;-61
2021/05/19 01:52:46;;;;;;;3.78;1.50;;;358.40;2329.60;;;;;;5090187;28;20036;-61
2021/05/19 01:55:13;;;;;;;4.10;1.73;;;358.40;2329.60;;;;;;5089750;28;20032;-61
2021/05/19 01:57:39;;;;;;;4.13;1.63;;;358.50;2329.60;;;;;;5090173;28;20024;-61
2021/05/19 02:00:07;;;;;;;2.75;1.90;;;358.50;2329.60;;;;;;5089916;28;20385;-62
2021/05/19 02:02:33;;;;;;;5.18;1.70;;;358.50;2329.60;;;;;;5089829;28;20024;-62
2021/05/19 02:05:00;;;;;;;4.85;1.90;;;358.40;2329.60;;;;;;5088470;28;20509;-62
2021/05/19 02:07:26;;;;;;;3.38;1.63;;;358.40;2329.60;;;;;;5089836;28;20063;-62
2021/05/19 02:09:52;;;;;;;6.25;2.05;;;358.40;2329.60;;;;;;5089822;28;20036;-62
2021/05/19 02:12:18;;;;;;;3.30;1.73;;;358.40;2329.60;;;;;;5089963;28;20095;-62
2021/05/19 02:14:43;;;;;;;3.50;1.80;;;333.60;2329.60;;;;;;5089604;28;20093;-62
2021/05/19 02:17:10;;;;;;;5.53;2.47;;;358.40;2329.60;;;;;;5089663;28;20047;-62
2021/05/19 02:19:36;;;;;;;6.25;1.80;;;333.70;2329.60;;;;;;5089747;28;20057;-62
2021/05/19 02:22:02;;;;;;;5.38;1.70;;;358.40;2329.60;;;;;;5091186;28;20031;-62
2021/05/19 02:24:28;;;;;;;4.47;3.75;;;333.70;2329.60;;;;;;5093409;28;20026;-62
2021/05/19 02:26:54;;;;;;;5.93;2.83;;;333.70;2329.60;;;;;;5093622;28;20032;-62
2021/05/19 02:29:20;;;;;;;7.43;6.03;;;333.70;2329.60;;;;;;5093150;28;20020;-62
2021/05/19 02:31:46;;;;;;;5.38;3.42;;;358.40;2329.60;;;;;;5092084;28;20044;-62
2021/05/19 02:34:12;;;;;;;6.22;3.35;;;333.60;2329.60;;;;;;5093139;28;20103;-62
2021/05/19 02:36:39;;;;;;;4.63;2.22;;;333.50;2329.60;;;;;;5093254;28;20028;-61
2021/05/19 02:39:10;;;;;;;5.53;2.40;;;333.60;2329.60;;;;;;5093336;28;20032;-62
2021/05/19 02:41:38;;;;;;;7.43;2.20;;;333.70;2329.60;;;;;;5093313;28;20032;-62
2021/05/19 02:44:05;;;;;;;3.85;2.05;;;333.70;2329.60;;;;;;5092851;28;20343;-62
2021/05/19 02:46:31;;;;;;;4.53;2.42;;;333.70;2329.60;;;;;;5092585;28;20063;-61
2021/05/19 02:49:01;;;;;;;5.72;2.10;;;333.70;2329.60;;;;;;5092990;28;20036;-61
2021/05/19 02:51:36;;;;;;;4.80;3.28;;;358.40;2329.60;;;;;;5093176;28;20023;-62
2021/05/19 02:54:03;;;;;;;3.35;2.05;;;358.40;2329.60;;;;;;5093047;28;20029;-63
2021/05/19 02:56:29;;;;;;;6.75;2.08;;;358.40;2329.60;;;;;;5092742;28;20016;-62
2021/05/19 02:58:55;;;;;;;4.25;2.28;;;333.70;2329.60;;;;;;5092498;28;20027;-62
2021/05/19 03:01:21;;;;;;;4.35;1.77;;;333.70;2329.60;;;;;;5092635;28;20488;-62
2021/05/19 03:03:47;;;;;;;2.92;1.77;;;333.70;2329.60;;;;;;5092738;28;20016;-62
2021/05/19 03:06:13;;;;;;;4.03;2.00;;;333.60;2329.60;;;;;;5092482;28;20028;-62
2021/05/19 03:08:39;;;;;;;4.45;3.92;;;333.60;2329.60;;;;;;5092874;28;20048;-62
2021/05/19 03:11:05;;;;;;;9.68;3.17;;;333.70;2329.60;;;;;;5092707;28;20380;-62
2021/05/19 03:13:32;;;;;;;5.00;2.60;;;333.70;2329.60;;;;;;5091108;28;20059;-62
2021/05/19 03:15:58;;;;;;;9.52;1.88;;;333.70;2329.60;;;;;;5092558;28;20420;-62
2021/05/19 03:18:24;;;;;;;4.80;2.40;;;333.70;2329.60;;;;;;5092256;28;20024;-62
2021/05/19 03:20:50;;;;;;;4.50;1.75;;;333.70;2329.60;;;;;;5092337;28;20046;-62
2021/05/19 03:23:16;;;;;;;3.67;2.60;;;333.60;2329.60;;;;;;5092290;28;20377;-62
2021/05/19 03:25:42;;;;;;;6.82;2.20;;;333.50;2329.60;;;;;;5092171;28;20024;-62
2021/05/19 03:28:08;;;;;;;3.58;1.50;;;333.40;2329.60;;;;;;5092288;28;20089;-62
2021/05/19 03:30:35;;;;;;;4.22;2.13;;;333.50;2329.60;;;;;;5092129;28;20115;-62
2021/05/19 03:33:00;;;;;;;5.38;2.17;;;333.40;2329.60;;;;;;5091494;28;20379;-62
2021/05/19 03:35:26;;;;;;;3.80;1.95;;;333.30;2329.60;;;;;;5092139;28;20020;-63
2021/05/19 03:37:52;;;;;;;4.30;2.20;;;333.20;2329.60;;;;;;5091984;28;20028;-62
2021/05/19 03:40:18;;;;;;;4.18;2.50;;;333.20;2329.60;;;;;;5092159;28;20036;-62
2021/05/19 03:42:44;;;;;;;5.53;2.08;;;333.30;2329.60;;;;;;5092595;28;20469;-63
2021/05/19 03:45:14;;;;;;;4.38;2.15;;;333.30;2329.60;;;;;;5101118;28;20491;-63
2021/05/19 03:47:40;;;;;;;3.78;2.08;;;333.40;2329.60;;;;;;5101870;28;20101;-63
2021/05/19 03:50:07;;;;;;;6.82;2.47;;;333.40;2329.60;;;;;;5101714;28;20035;-64
2021/05/19 03:52:33;;;;;;;2.78;1.92;;;333.40;2329.60;;;;;;5100210;28;20049;-62
2021/05/19 03:55:00;;;;;;;4.47;2.25;;;333.40;2329.60;;;;;;5096652;28;20048;-81
2021/05/19 03:57:26;;;;;;;6.30;2.38;;;333.50;2329.60;;;;;;5094282;28;20035;-72
2021/05/19 03:59:52;;;;;;;5.28;2.72;;;333.50;2329.60;;;;;;5094138;28;20386;-70
2021/05/19 04:02:17;;;;;;;6.07;2.90;;;333.60;2329.60;;;;;;5094391;28;20123;-72
2021/05/19 04:04:43;;;;;;;4.28;1.95;;;333.50;2329.60;;;;;;5093627;28;20438;-61
2021/05/19 04:07:10;;;;;;;6.32;2.67;;;333.50;2329.60;;;;;;5091508;28;20112;-61
2021/05/19 04:09:36;;;;;;;3.25;1.95;;;333.50;2329.60;;;;;;5091705;28;20045;-62
2021/05/19 04:12:03;;;;;;;6.28;2.63;;;333.50;2329.60;;;;;;5091383;28;20032;-62
2021/05/19 04:14:29;;;;;;;5.80;2.03;;;333.60;2329.60;;;;;;5091369;28;20031;-65
2021/05/19 04:16:55;;;;;;;5.10;1.80;;;333.60;2329.60;;;;;;5091203;28;20032;-62
2021/05/19 04:19:20;;;;;;;5.15;2.00;;;333.60;2329.60;;;;;;5090827;28;20035;-63
2021/05/19 04:21:46;;;;;;;2.88;1.67;;;333.60;2329.60;;;;;;5091289;28;20077;-62
2021/05/19 04:24:12;;;;;;;3.33;1.63;;;333.60;2329.60;;;;;;5091166;28;20020;-62
2021/05/19 04:26:37;;;;;;;2.47;1.58;;;333.70;2329.60;;;;;;5091251;28;20382;-61
2021/05/19 04:29:04;;;;;;;14.55;1.55;;;333.70;2329.60;;;;;;5090955;28;20023;-61
2021/05/19 04:31:30;;;;;;;3.50;1.63;;;333.70;2329.60;;;;;;5091196;28;20031;-62
2021/05/19 04:33:56;;;;;;;2.47;1.40;;;333.60;2329.60;;;;;;5091014;28;20474;-62
2021/05/19 04:36:22;;;;;;;4.10;1.30;;;333.60;2329.60;;;;;;5090646;28;20028;-62
2021/05/19 04:38:48;;;;;;;2.80;1.40;;;333.60;2329.60;;;;;;5091160;28;20020;-62
2021/05/19 04:41:14;;;;;;;2.75;1.05;;;333.70;2329.60;;;;;;5090793;28;20024;-64
2021/05/19 04:43:39;;;;;;;2.70;1.30;;;358.50;2329.60;;;;;;5090887;28;20031;-63
2021/05/19 04:46:05;;;;;;;2.50;1.60;;;358.60;2329.60;;;;;;5089621;28;20044;-63
2021/05/19 04:48:32;;;;;;;28.17;17.17;;;358.80;2329.60;;;;;;5090626;28;20033;-62
2021/05/19 04:50:58;;;;;;;53.05;31.30;;;358.90;2329.60;;;;;;5090759;28;20107;-62
2021/05/19 04:53:23;;;;;;;64.45;36.83;;;359.00;2329.60;;;;;;5090385;28;20111;-62
2021/05/19 04:55:49;;;;;;;70.68;35.60;;;359.00;2329.60;;;;;;5090649;28;20064;-61
2021/05/19 04:58:15;;;;;;;55.47;31.23;;;359.00;2329.60;;;;;;5090439;28;20028;-60
2021/05/19 05:00:40;;;;;;;11.93;7.30;;;359.00;2329.60;;;;;;5090419;28;20040;-58
2021/05/19 05:03:08;;;;;;;9.55;4.93;;;359.00;2329.60;;;;;;5090693;28;20020;-59
2021/05/19 05:05:34;;;;;;;8.60;5.15;;;359.00;2329.60;;;;;;5090310;28;20032;-60
2021/05/19 05:07:59;;;;;;;13.20;6.45;;;359.00;2329.60;;;;;;5090391;28;20073;-60
2021/05/19 05:10:25;;;;;;;11.13;5.43;;;359.00;2329.60;;;;;;5090495;28;20081;-59
2021/05/19 05:12:51;;;;;;;10.25;6.82;;;358.90;2329.60;;;;;;5090485;28;20030;-59
2021/05/19 05:15:18;;;;;;;18.00;12.98;;;358.90;2329.60;;;;;;5090289;28;20127;-58
2021/05/19 05:17:44;;;;;;;20.17;10.50;;;358.90;2329.60;;;;;;5090174;28;20028;-59
2021/05/19 05:20:10;;;;;;;11.73;6.85;;;359.10;2329.60;;;;;;5090209;28;20385;-59
2021/05/19 05:22:37;;;;;;;9.90;5.22;;;359.20;2329.60;;;;;;5090127;28;20028;-62
2021/05/19 05:25:05;;;;;;;7.65;2.60;;;384.10;2329.60;;;;;;5090066;28;20062;-59
2021/05/19 05:27:30;;;;;;;7.30;4.05;;;384.30;2329.60;;;;;;5090005;28;20031;-59
2021/05/19 05:29:56;;;;;;;4.25;2.88;;;384.40;2329.60;;;;;;5090117;28;20024;-58
2021/05/19 05:32:22;;;;;;;4.13;2.28;;;384.90;2329.60;;;;;;5089974;28;20532;-59
2021/05/19 05:34:48;;;;;;;4.65;2.30;;;410.30;2252.80;;;;;;5090208;28;20024;-59
2021/05/19 05:37:14;;;;;;;3.85;3.22;;;461.50;2073.60;;;;;;5089826;28;20051;-59
2021/05/19 05:39:40;;;;;;;10.63;6.78;;;461.20;2048.00;;;;;;5090094;28;20492;-60
2021/05/19 05:42:06;;;;;;;7.38;4.63;;;460.90;2150.40;;;;;;5090339;28;20363;-59
2021/05/19 05:44:32;;;;;;;6.47;3.85;;;436.00;2201.60;;;;;;5089760;28;20382;-60
2021/05/19 05:46:58;;;;;;;7.25;3.38;;;435.90;2201.60;;;;;;5089744;28;20043;-60
2021/05/19 05:49:24;;;;;;;6.55;3.50;;;460.80;2227.20;;;;;;5089764;28;20028;-60
2021/05/19 05:51:49;;;;;;;9.02;4.28;;;435.30;2252.80;;;;;;5089723;28;20020;-59
2021/05/19 05:54:15;;;;;;;6.78;3.65;;;410.50;2278.40;;;;;;5090186;28;20470;-59
2021/05/19 05:56:41;;;;;;;6.15;4.15;;;410.50;2329.60;;;;;;5090973;28;20450;-60
2021/05/19 05:59:10;;;;;;;9.45;4.03;;;410.50;2355.20;;;;;;5093743;28;20509;-61
2021/05/19 06:01:36;;;;;;;15.25;6.13;;;410.40;2355.20;;;;;;5094029;28;20426;-59
2021/05/19 06:04:02;;;;;;;11.20;5.82;;;410.20;2355.20;;;;;;5093676;28;20062;-59
2021/05/19 06:06:27;;;;;;;12.15;6.80;;;410.10;2355.20;;;;;;5093702;28;20020;-59
2021/05/19 06:08:53;;;;;;;16.05;8.32;;;410.20;2355.20;;;;;;5093582;28;20024;-66
2021/05/19 06:11:19;;;;;;;10.52;6.57;;;410.20;2355.20;;;;;;5093829;28;20020;-59
2021/05/19 06:13:45;;;;;;;9.15;4.88;;;410.10;2355.20;;;;;;5093739;28;20028;-60
2021/05/19 06:16:11;;;;;;;9.27;7.15;;;410.10;2355.20;;;;;;5093264;28;20497;-60
2021/05/19 06:18:36;;;;;;;15.13;11.13;;;410.00;2329.60;;;;;;5093680;28;20149;-65
2021/05/19 06:21:02;;;;;;;11.32;6.97;;;410.00;2304.00;;;;;;5093320;28;20520;-59
2021/05/19 06:23:28;;;;;;;8.65;5.18;;;410.10;2329.60;;;;;;5093470;28;20549;-60
2021/05/19 06:25:54;;;;;;;7.10;3.80;;;410.30;2355.20;;;;;;5093157;28;20107;-60
2021/05/19 06:28:20;;;;;;;6.47;3.95;;;435.60;2252.80;;;;;;5093159;28;20074;-60
2021/05/19 06:30:46;;;;;;;12.38;8.82;;;461.10;2227.20;;;;;;5093140;28;20085;-60
2021/05/19 06:33:12;;;;;;;19.15;10.57;;;461.50;2150.40;;;;;;5093011;28;20024;-59
2021/05/19 06:35:38;;;;;;;10.48;7.50;;;487.10;1996.80;;;;;;5093272;28;20027;-60
2021/05/19 06:38:03;;;;;;;10.10;5.80;;;512.60;1843.20;;;;;;5093012;28;20024;-59
2021/05/19 06:40:30;;;;;;;9.30;5.38;;;563.20;1740.80;;;;;;5092783;28;20085;-60
2021/05/19 06:42:56;;;;;;;6.20;5.30;;;666.20;1305.60;;;;;;5092954;28;20074;-59
2021/05/19 06:45:22;;;;;;;6.68;5.53;;;716.90;1203.20;;;;;;5092902;28;20463;-60
2021/05/19 06:47:48;;;;;;;9.93;3.72;;;742.50;1152.00;;;;;;5092843;28;20056;-60
2021/05/19 06:50:14;;;;;;;5.28;3.85;;;716.90;1152.00;;;;;;5092542;28;20465;-59
2021/05/19 06:52:39;;;;;;;5.40;3.47;;;742.40;1100.80;;;;;;5092669;28;20028;-61
2021/05/19 06:55:07;;;;;;;4.32;3.50;;;793.60;972.80;;;;;;5093356;28;20474;-60
2021/05/19 06:57:35;;;;;;;11.68;4.55;;;742.40;1049.60;;;;;;5091594;28;20028;-61
2021/05/19 07:00:05;;;;;;;3.72;2.72;;;844.90;896.00;;;;;;5092642;28;20067;-61
2021/05/19 07:02:31;;;;;;;6.03;4.75;;;768.30;972.80;;;;;;5092624;28;20363;-61
2021/05/19 07:04:56;;;;;;;4.60;2.88;;;793.60;947.20;;;;;;5092729;28;20061;-60
2021/05/19 07:07:23;;;;;;;7.80;3.80;;;794.20;921.60;;;;;;5092074;28;20027;-60
2021/05/19 07:09:49;;;;;;;4.20;2.83;;;794.40;921.60;;;;;;5092060;28;20074;-60
2021/05/19 07:12:15;;;;;;;5.47;2.85;;;793.70;947.20;;;;;;5092741;28;20069;-60
2021/05/19 07:14:51;;;;;;;4.25;2.65;;;717.70;998.40;;;;;;5091409;28;20119;-60
2021/05/19 07:17:17;;;;;;;3.85;2.67;;;666.30;1126.40;;;;;;5092432;28;20024;-60
2021/05/19 07:19:43;;;;;;;3.75;2.35;;;640.50;1177.60;;;;;;5092019;28;20040;-60
2021/05/19 07:22:09;;;;;;;7.35;2.67;;;614.80;1228.80;;;;;;5092346;28;20035;-60
2021/05/19 07:24:35;;;;;;;4.03;2.08;;;589.30;1331.20;;;;;;5092578;28;20034;-60
2021/05/19 07:27:01;;;;;;;3.90;2.75;;;564.00;1408.00;;;;;;5092060;28;20028;-60
2021/05/19 07:29:27;;;;;;;5.00;2.42;;;589.50;1356.80;;;;;;5092105;28;20046;-59
2021/05/19 07:31:53;;;;;;;3.88;2.00;;;589.50;1331.20;;;;;;5091984;28;20024;-59
2021/05/19 07:34:19;;;;;;;4.07;2.42;;;589.50;1356.80;;;;;;5092040;28;20355;-59
2021/05/19 07:36:44;;;;;;;7.00;2.38;;;589.50;1331.20;;;;;;5091791;28;20024;-60
2021/05/19 07:39:11;;;;;;;3.83;2.63;;;589.50;1356.80;;;;;;5091958;28;20524;-60
2021/05/19 07:41:37;;;;;;;4.28;2.40;;;589.40;1382.40;;;;;;5092069;28;20024;-60
2021/05/19 07:44:04;;;;;;;4.78;2.67;;;589.70;1356.80;;;;;;5091650;28;20039;-60
2021/05/19 07:46:30;;;;;;;6.22;2.60;;;640.00;1331.20;;;;;;5091389;28;20051;-60
2021/05/19 07:48:55;;;;;;;3.38;2.35;;;615.10;1280.00;;;;;;5091823;28;20032;-59
2021/05/19 07:51:21;;;;;;;5.13;2.42;;;614.70;1331.20;;;;;;5091410;28;20490;-59
2021/05/19 07:53:47;;;;;;;6.00;2.47;;;589.70;1331.20;;;;;;5091560;28;20055;-59
2021/05/19 07:56:21;;;;;;;18.55;2.97;;;589.20;1382.40;;;;;;5091710;28;20048;-60
2021/05/19 07:58:56;;;;;;;5.72;2.47;;;588.90;1408.00;;;;;;5091433;28;20580;-59
2021/05/19 08:03:53;;;;;;;4.25;2.60;;;589.00;1408.00;;;;;;5091331;28;20103;-59
2021/05/19 08:06:20;;;;;;;3.60;2.70;;;589.40;1382.40;;;;;;5091531;28;20770;-60
2021/05/19 08:08:46;;;;;;;3.67;2.30;;;589.50;1408.00;;;;;;5091389;28;20158;-59
2021/05/19 08:11:15;;;;;;;6.15;2.28;;;588.90;1459.20;;;;;;5091338;28;20020;-59
2021/05/19 08:13:41;;;;;;;4.35;2.50;;;563.90;1433.60;;;;;;5091121;28;20497;-60
2021/05/19 08:16:07;;;;;;;5.10;2.42;;;563.50;1484.80;;;;;;5091227;28;20036;-59
2021/05/19 08:18:33;;;;;;;4.65;2.47;;;563.60;1484.80;;;;;;5091205;28;20424;-59
2021/05/19 08:20:59;;;;;;;6.25;2.72;;;563.60;1484.80;;;;;;5091056;28;20035;-59
2021/05/19 08:23:25;;;;;;;4.75;2.42;;;563.60;1536.00;;;;;;5091188;28;20024;-59
2021/05/19 08:25:51;;;;;;;5.00;2.80;;;563.60;1536.00;;;;;;5090795;28;20102;-59
2021/05/19 08:28:17;;;;;;;5.07;2.50;;;563.40;1561.60;;;;;;5091012;28;20020;-59
2021/05/19 08:30:44;;;;;;;6.45;2.72;;;563.40;1561.60;;;;;;5090684;28;20032;-59
2021/05/19 08:33:09;;;;;;;4.38;2.58;;;563.40;1510.40;;;;;;5090954;28;20030;-59
2021/05/19 08:35:35;;;;;;;4.35;2.67;;;563.40;1510.40;;;;;;5090918;28;20028;-59
2021/05/19 08:38:01;;;;;;;5.18;2.92;;;563.30;1587.20;;;;;;5090670;28;20020;-60
2021/05/19 08:40:30;;;;;;;6.82;3.35;;;538.50;1536.00;;;;;;5090647;28;20043;-59
2021/05/19 08:42:56;;;;;;;4.50;2.63;;;538.50;1536.00;;;;;;5090812;28;20103;-59
2021/05/19 08:45:22;;;;;;;5.05;3.22;;;538.30;1536.00;;;;;;5090269;28;20032;-59
2021/05/19 08:47:57;;;;;;;5.35;2.75;;;538.00;1561.60;;;;;;5090381;28;20040;-64
2021/05/19 08:50:25;;;;;;;6.75;3.08;;;537.90;1664.00;;;;;;5090443;28;20094;-59
2021/05/19 08:52:51;;;;;;;7.93;4.15;;;537.60;1664.00;;;;;;5090390;28;20042;-59
2021/05/19 08:55:20;;;;;;;5.30;2.90;;;512.60;1612.80;;;;;;5090540;28;20024;-60
2021/05/19 08:57:47;;;;;;;7.97;3.15;;;512.40;1638.40;;;;;;5090456;28;20466;-59
2021/05/19 09:00:13;;;;;;;6.30;2.60;;;512.20;1715.20;;;;;;5090157;28;20038;-59
2021/05/19 09:02:39;;;;;;;5.85;2.75;;;512.20;1715.20;;;;;;5090690;28;20027;-59
2021/05/19 09:05:07;;;;;;;6.57;2.60;;;487.30;1740.80;;;;;;5090332;28;20024;-59
2021/05/19 09:07:34;;;;;;;5.28;3.08;;;487.20;1715.20;;;;;;5090386;28;20469;-60
2021/05/19 09:10:19;;;;;;;6.13;3.63;;;512.00;1843.20;;;;;;5090451;28;20032;-59
2021/05/19 09:12:44;;;;;;;6.47;2.67;;;512.20;1868.80;;;;;;5090150;28;20032;-60
2021/05/19 09:15:13;;;;;;;6.10;3.20;;;512.60;1868.80;;;;;;5090029;28;20024;-59
2021/05/19 09:17:40;;;;;;;5.63;2.78;;;512.90;1817.60;;;;;;5090315;28;20029;-59
2021/05/19 09:20:06;;;;;;;4.88;3.00;;;537.90;1843.20;;;;;;5090462;28;20032;-59
2021/05/19 09:22:38;;;;;;;4.78;2.75;;;538.20;1792.00;;;;;;5090394;28;20458;-60
2021/05/19 09:25:18;;;;;;;4.13;3.08;;;563.80;1715.20;;;;;;5090072;28;20511;-59
2021/05/19 09:27:47;;;;;;;6.57;3.53;;;564.10;1689.60;;;;;;5090138;28;20424;-59
2021/05/19 09:30:13;;;;;;;7.13;3.25;;;589.10;1561.60;;;;;;5090016;28;20024;-59
2021/05/19 09:32:43;;;;;;;6.15;3.70;;;589.10;1561.60;;;;;;5092757;28;20024;-60
2021/05/19 09:35:10;;;;;;;4.90;3.25;;;589.60;1561.60;;;;;;5093266;28;20031;-59
2021/05/19 09:37:37;;;;;;;5.22;3.85;;;614.50;1484.80;;;;;;5094458;28;20020;-59
2021/05/19 09:40:12;;;;;;;6.25;4.93;;;614.60;1587.20;;;;;;5094026;28;20036;-60
2021/05/19 09:42:38;;;;;;;14.63;12.60;;;614.50;1459.20;;;;;;5094237;28;20024;-60
2021/05/19 09:45:16;;;;;;;5.53;4.20;;;589.70;1459.20;;;;;;5093874;28;20024;-59
2021/05/19 09:47:43;;;;;;;9.75;7.40;;;614.80;1433.60;;;;;;5093746;28;20090;-59
2021/05/19 09:50:11;;;;;;;11.35;8.82;;;615.00;1382.40;;;;;;5093982;28;20047;-59
2021/05/19 09:52:38;;;;;;;8.60;6.07;;;614.70;1459.20;;;;;;5093954;28;20066;-59
2021/05/19 09:55:12;;;;;;;6.05;3.15;;;614.60;1382.40;;;;;;5093696;28;20485;-59
2021/05/19 09:57:44;;;;;;;5.88;3.53;;;589.30;1433.60;;;;;;5093802;28;20028;-59
2021/05/19 10:00:11;;;;;;;5.80;3.50;;;589.10;1408.00;;;;;;5093732;28;20043;-59
2021/05/19 10:02:37;;;;;;;6.15;3.90;;;588.90;1433.60;;;;;;5094003;28;20024;-59
2021/05/19 10:05:12;;;;;;;10.15;4.25;;;588.80;1408.00;;;;;;5093798;28;20041;-59
2021/05/19 10:07:38;;;;;;;9.65;4.38;;;589.00;1433.60;;;;;;5093891;28;20035;-59
2021/05/19 10:10:05;;;;;;;10.73;5.88;;;588.80;1459.20;;;;;;5093583;28;20111;-59
2021/05/19 10:12:31;;;;;;;15.43;9.52;;;563.80;1510.40;;;;;;5093500;28;20027;-59
2021/05/19 10:15:02;;;;;;;6.65;3.85;;;564.00;1510.40;;;;;;5093848;28;20104;-59
2021/05/19 10:17:29;;;;;;;9.80;4.57;;;563.70;1484.80;;;;;;5093692;28;20032;-59
2021/05/19 10:19:57;;;;;;;5.90;3.40;;;563.60;1561.60;;;;;;5093295;28;20054;-59
2021/05/19 10:22:25;;;;;;;20.63;12.50;;;538.40;1510.40;;;;;;5093404;28;20051;-59
2021/05/19 10:25:04;;;;;;;9.48;4.00;;;538.10;1561.60;;;;;;5093229;28;20017;-59
2021/05/19 10:27:51;;;;;;;7.07;3.75;;;538.00;1561.60;;;;;;5092966;28;20024;-60
2021/05/19 10:30:35;;;;;;;7.45;4.60;;;538.00;1561.60;;;;;;5093343;28;20118;-59
2021/05/19 10:33:01;;;;;;;8.85;4.13;;;538.00;1587.20;;;;;;5093100;28;20030;-59
2021/05/19 10:35:37;;;;;;;5.30;3.40;;;537.90;1587.20;;;;;;5093322;28;20028;-59
2021/05/19 10:38:22;;;;;;;7.15;4.00;;;538.00;1561.60;;;;;;5093154;28;20410;-60
2021/05/19 10:40:58;;;;;;;6.35;4.65;;;537.70;1587.20;;;;;;5092929;28;20150;-59
2021/05/19 10:43:54;;;;;;;6.55;5.82;;;537.90;1612.80;;;;;;5092815;28;20084;-59
2021/05/19 10:49:47;;;;;;;9.77;3.80;;;537.90;1612.80;;;;;;5093093;28;20039;-59
2021/05/19 10:52:20;;;;;;;7.50;4.40;;;537.90;1638.40;;;;;;5092657;28;20093;-58
2021/05/19 10:57:54;;;;;;;9.05;3.70;;;538.00;1561.60;;;;;;5093152;28;20385;-59
2021/05/19 11:00:31;;;;;;;10.13;3.83;;;538.10;1587.20;;;;;;5092731;28;20032;-59
2021/05/19 11:02:57;;;;;;;5.03;3.60;;;537.90;1638.40;;;;;;5093315;28;20040;-59
2021/05/19 11:05:25;;;;;;;5.18;3.45;;;538.40;1612.80;;;;;;5093176;28;20032;-59
2021/05/19 11:08:06;;;;;;;7.63;3.50;;;538.50;1510.40;;;;;;5095031;28;20022;-59
2021/05/19 11:10:38;;;;;;;7.13;3.42;;;563.30;1561.60;;;;;;5096529;28;20046;-59
2021/05/19 11:13:04;;;;;;;6.40;3.08;;;563.30;1587.20;;;;;;5102239;28;20020;-60
2021/05/19 11:18:20;;;;;;;11.35;5.60;;;563.40;1484.80;;;;;;5102991;28;20028;-59
2021/05/19 11:20:47;;;;;;;5.85;4.18;;;563.30;1612.80;;;;;;5099835;28;20489;-61
2021/05/19 11:23:15;;;;;;;7.07;3.78;;;563.40;1561.60;;;;;;5094181;28;20466;-59
2021/05/19 11:25:41;;;;;;;4.22;2.45;;;563.20;1510.40;;;;;;5092061;28;20031;-59
2021/05/19 11:28:07;;;;;;;4.85;3.30;;;538.50;1510.40;;;;;;5093361;28;20020;-61
2021/05/19 11:30:34;;;;;;;8.75;3.83;;;563.40;1561.60;;;;;;5093135;28;20046;-59
2021/05/19 11:33:09;;;;;;;6.63;3.97;;;563.60;1612.80;;;;;;5093007;28;20016;-59
2021/05/19 11:35:35;;;;;;;6.68;3.90;;;563.60;1612.80;;;;;;5093330;28;20028;-59
2021/05/19 11:38:07;;;;;;;7.00;3.78;;;563.40;1587.20;;;;;;5091700;28;20521;-61
2021/05/19 11:40:41;;;;;;;6.95;3.95;;;563.80;1561.60;;;;;;5091650;28;20315;-60
2021/05/19 11:43:07;;;;;;;7.53;4.57;;;563.70;1612.80;;;;;;5091881;28;20099;-64
2021/05/19 11:45:33;;;;;;;12.38;5.55;;;563.80;1664.00;;;;;;5091873;28;20043;-60
2021/05/19 11:48:00;;;;;;;10.38;4.13;;;563.50;1612.80;;;;;;5091735;28;20048;-59
2021/05/19 11:50:31;;;;;;;5.72;3.38;;;563.60;1561.60;;;;;;5091775;28;20028;-59
2021/05/19 11:52:59;;;;;;;9.23;4.95;;;563.60;1536.00;;;;;;5091770;28;20028;-59
2021/05/19 11:55:47;;;;;;;7.80;3.47;;;563.60;1612.80;;;;;;5091400;28;20422;-60
2021/05/19 11:58:25;;;;;;;8.45;4.40;;;563.20;1536.00;;;;;;5091516;28;20024;-60
2021/05/19 12:01:01;;;;;;;11.30;4.82;;;538.40;1510.40;;;;;;5091525;28;20079;-60
2021/05/19 12:03:32;;;;;;;5.05;4.32;;;537.90;1587.20;;;;;;5091718;28;20016;-60
2021/05/19 12:06:04;;;;;;;9.88;4.68;;;537.80;1689.60;;;;;;5091634;28;20020;-61
2021/05/19 12:08:30;;;;;;;7.72;4.70;;;512.80;1715.20;;;;;;5089973;28;20078;-60
2021/05/19 12:11:16;;;;;;;9.50;5.15;;;512.50;1740.80;;;;;;5091459;28;20024;-60
2021/05/19 12:13:54;;;;;;;8.20;4.60;;;512.30;1766.40;;;;;;5091231;28;20412;-59
2021/05/19 12:16:36;;;;;;;13.77;7.53;;;512.10;1868.80;;;;;;5090601;28;20458;-60
2021/05/19 12:19:08;;;;;;;12.23;6.50;;;512.00;1971.20;;;;;;5091283;28;20028;-60
2021/05/19 12:21:46;;;;;;;25.25;15.40;;;487.30;1996.80;;;;;;5091226;28;20432;-59
2021/05/19 12:24:13;;;;;;;22.00;13.07;;;512.40;2073.60;;;;;;5091098;28;20054;-60
2021/05/19 12:26:40;;;;;;;6.85;5.57;;;537.70;1996.80;;;;;;5091457;28;20032;-59
2021/05/19 12:29:28;;;;;;;10.43;6.78;;;537.60;1920.00;;;;;;5091319;28;20019;-59
2021/05/19 12:32:07;;;;;;;13.80;7.40;;;537.70;1945.60;;;;;;5090818;28;20031;-59
2021/05/19 12:34:34;;;;;;;16.17;7.88;;;538.00;1996.80;;;;;;5090931;28;20042;-60